createdAt,value
2019-01-25T00:00:53.453Z,979.12
2019-01-25T00:01:53.413Z,979.14
2019-01-25T00:02:53.359Z,979.16
2019-01-25T00:03:53.320Z,979.19
2019-01-25T00:04:53.266Z,979.16
2019-01-25T00:05:53.222Z,979.18
2019-01-25T00:06:53.183Z,979.20
2019-01-25T00:07:53.136Z,979.20
2019-01-25T00:08:53.095Z,979.20
2019-01-25T00:09:58.598Z,979.21
2019-01-25T00:10:53.003Z,979.22
2019-01-25T00:11:52.961Z,979.24
2019-01-25T00:12:52.905Z,979.28
2019-01-25T00:13:52.865Z,979.27
2019-01-25T00:14:52.824Z,979.27
2019-01-25T00:15:52.780Z,979.24
2019-01-25T00:16:52.726Z,979.25
2019-01-25T00:17:52.686Z,979.23
2019-01-25T00:18:52.640Z,979.20
2019-01-25T00:19:52.596Z,979.21
2019-01-25T00:20:52.553Z,979.18
2019-01-25T00:21:52.507Z,979.17
2019-01-25T00:22:52.462Z,979.16
2019-01-25T00:23:52.479Z,979.17
2019-01-25T00:24:52.385Z,979.14
2019-01-25T00:25:52.323Z,979.15
2019-01-25T00:26:52.282Z,979.13
2019-01-25T00:27:52.236Z,979.14
2019-01-25T00:28:52.285Z,979.18
2019-01-25T00:29:52.145Z,979.15
2019-01-25T00:30:52.101Z,979.17
2019-01-25T00:31:52.054Z,979.15
2019-01-25T00:32:52.013Z,979.11
2019-01-25T00:33:51.968Z,979.13
2019-01-25T00:34:51.922Z,979.14
2019-01-25T00:35:51.882Z,979.14
2019-01-25T00:36:51.829Z,979.13
2019-01-25T00:37:51.788Z,979.16
2019-01-25T00:38:51.746Z,979.17
2019-01-25T00:39:51.697Z,979.18
2019-01-25T00:40:51.660Z,979.17
2019-01-25T00:41:51.614Z,979.21
2019-01-25T00:42:51.570Z,979.23
2019-01-25T00:43:51.523Z,979.20
2019-01-25T00:44:51.469Z,979.21
2019-01-25T00:45:51.426Z,979.19
2019-01-25T00:46:51.385Z,979.20
2019-01-25T00:47:51.342Z,979.19
2019-01-25T00:48:51.291Z,979.17
2019-01-25T00:49:51.263Z,979.20
2019-01-25T00:50:51.202Z,979.20
2019-01-25T00:51:51.160Z,979.20
2019-01-25T00:52:51.126Z,979.18
2019-01-25T00:53:51.067Z,979.15
2019-01-25T00:54:51.029Z,979.12
2019-01-25T00:55:50.981Z,979.13
2019-01-25T00:56:50.933Z,979.17
2019-01-25T00:57:50.885Z,979.19
2019-01-25T00:58:50.842Z,979.19
2019-01-25T00:59:50.798Z,979.20
2019-01-25T01:00:50.757Z,979.21
2019-01-25T01:01:50.713Z,979.27
2019-01-25T01:02:50.660Z,979.22
2019-01-25T01:03:50.619Z,979.22
2019-01-25T01:04:50.576Z,979.26
2019-01-25T01:05:50.532Z,979.22
2019-01-25T01:06:50.489Z,979.23
2019-01-25T01:07:50.443Z,979.19
2019-01-25T01:08:50.399Z,979.24
2019-01-25T01:09:50.347Z,979.25
2019-01-25T01:10:50.300Z,979.24
2019-01-25T01:11:50.258Z,979.25
2019-01-25T01:12:50.217Z,979.26
2019-01-25T01:13:50.175Z,979.27
2019-01-25T01:14:50.128Z,979.24
2019-01-25T01:15:50.083Z,979.22
2019-01-25T01:16:50.035Z,979.20
2019-01-25T01:17:49.987Z,979.22
2019-01-25T01:18:49.954Z,979.20
2019-01-25T01:19:49.902Z,979.18
2019-01-25T01:20:49.852Z,979.21
2019-01-25T01:21:49.808Z,979.24
2019-01-25T01:22:49.765Z,979.25
2019-01-25T01:23:49.722Z,979.25
2019-01-25T01:24:49.677Z,979.25
2019-01-25T01:25:49.634Z,979.30
2019-01-25T01:26:49.593Z,979.29
2019-01-25T01:27:49.541Z,979.30
2019-01-25T01:28:49.536Z,979.29
2019-01-25T01:29:49.448Z,979.24
2019-01-25T01:30:49.404Z,979.28
2019-01-25T01:31:49.368Z,979.26
2019-01-25T01:32:49.318Z,979.27
2019-01-25T01:33:49.277Z,979.31
2019-01-25T01:34:49.224Z,979.33
2019-01-25T01:35:49.183Z,979.32
2019-01-25T01:36:49.161Z,979.34
2019-01-25T01:37:49.097Z,979.37
2019-01-25T01:38:49.054Z,979.34
2019-01-25T01:39:49.009Z,979.37
2019-01-25T01:40:48.959Z,979.39
2019-01-25T01:41:48.912Z,979.37
2019-01-25T01:42:48.866Z,979.40
2019-01-25T01:43:48.823Z,979.42
2019-01-25T01:44:48.782Z,979.45
2019-01-25T01:45:48.739Z,979.44
2019-01-25T01:46:48.701Z,979.45
2019-01-25T01:47:48.647Z,979.47
2019-01-25T01:48:48.595Z,979.49
2019-01-25T01:49:48.552Z,979.47
2019-01-25T01:50:48.513Z,979.48
2019-01-25T01:51:48.465Z,979.47
2019-01-25T01:52:48.420Z,979.45
2019-01-25T01:53:48.373Z,979.39
2019-01-25T01:54:48.328Z,979.41
2019-01-25T01:55:48.284Z,979.43
2019-01-25T01:56:48.242Z,979.45
2019-01-25T01:57:48.198Z,979.41
2019-01-25T01:58:48.153Z,979.40
2019-01-25T01:59:48.106Z,979.42
2019-01-25T02:00:48.061Z,979.38
2019-01-25T02:01:48.014Z,979.37
2019-01-25T02:02:47.968Z,979.32
2019-01-25T02:03:47.928Z,979.35
2019-01-25T02:04:47.886Z,979.39
2019-01-25T02:05:47.840Z,979.36
2019-01-25T02:06:47.789Z,979.38
2019-01-25T02:07:47.748Z,979.40
2019-01-25T02:08:47.715Z,979.40
2019-01-25T02:09:47.661Z,979.44
2019-01-25T02:10:47.619Z,979.48
2019-01-25T02:11:47.574Z,979.49
2019-01-25T02:12:47.522Z,979.46
2019-01-25T02:13:47.477Z,979.45
2019-01-25T02:14:47.430Z,979.46
2019-01-25T02:15:47.387Z,979.40
2019-01-25T02:16:47.342Z,979.42
2019-01-25T02:17:47.306Z,979.40
2019-01-25T02:18:47.265Z,979.40
2019-01-25T02:19:47.208Z,979.39
2019-01-25T02:20:47.162Z,979.39
2019-01-25T02:21:47.115Z,979.38
2019-01-25T02:22:47.087Z,979.41
2019-01-25T02:23:47.030Z,979.40
2019-01-25T02:24:46.988Z,979.42
2019-01-25T02:25:46.935Z,979.42
2019-01-25T02:26:46.892Z,979.45
2019-01-25T02:27:46.847Z,979.43
2019-01-25T02:28:46.806Z,979.44
2019-01-25T02:29:46.763Z,979.44
2019-01-25T02:30:46.720Z,979.42
2019-01-25T02:31:46.673Z,979.41
2019-01-25T02:32:46.623Z,979.43
2019-01-25T02:33:46.580Z,979.46
2019-01-25T02:34:46.531Z,979.43
2019-01-25T02:35:46.489Z,979.41
2019-01-25T02:36:46.448Z,979.41
2019-01-25T02:37:46.406Z,979.38
2019-01-25T02:38:46.352Z,979.36
2019-01-25T02:39:46.313Z,979.39
2019-01-25T02:40:46.266Z,979.37
2019-01-25T02:41:46.227Z,979.35
2019-01-25T02:42:46.181Z,979.38
2019-01-25T02:43:46.136Z,979.36
2019-01-25T02:44:46.085Z,979.40
2019-01-25T02:45:46.039Z,979.36
2019-01-25T02:46:45.994Z,979.39
2019-01-25T02:47:45.953Z,979.44
2019-01-25T02:48:45.910Z,979.40
2019-01-25T02:49:45.869Z,979.41
2019-01-25T02:50:45.823Z,979.41
2019-01-25T02:51:45.782Z,979.41
2019-01-25T02:52:45.726Z,979.39
2019-01-25T02:53:45.705Z,979.42
2019-01-25T02:54:45.642Z,979.41
2019-01-25T02:55:45.594Z,979.42
2019-01-25T02:56:45.557Z,979.39
2019-01-25T02:57:45.500Z,979.37
2019-01-25T02:58:45.456Z,979.38
2019-01-25T02:59:45.416Z,979.39
2019-01-25T03:00:45.371Z,979.43
2019-01-25T03:01:45.330Z,979.42
2019-01-25T03:02:45.286Z,979.40
2019-01-25T03:03:45.237Z,979.42
2019-01-25T03:04:45.197Z,979.42
2019-01-25T03:05:45.142Z,979.43
2019-01-25T03:06:45.099Z,979.42
2019-01-25T03:07:45.056Z,979.39
2019-01-25T03:08:46.590Z,979.39
2019-01-25T03:09:44.969Z,979.36
2019-01-25T03:10:47.193Z,979.39
2019-01-25T03:11:44.877Z,979.35
2019-01-25T03:12:44.834Z,979.30
2019-01-25T03:13:44.791Z,979.28
2019-01-25T03:14:44.748Z,979.29
2019-01-25T03:15:44.697Z,979.27
2019-01-25T03:16:44.650Z,979.26
2019-01-25T03:17:44.606Z,979.27
2019-01-25T03:18:44.558Z,979.27
2019-01-25T03:19:44.518Z,979.26
2019-01-25T03:20:44.475Z,979.25
2019-01-25T03:21:44.433Z,979.32
2019-01-25T03:22:44.386Z,979.33
2019-01-25T03:23:44.342Z,979.34
2019-01-25T03:24:44.291Z,979.35
2019-01-25T03:25:44.252Z,979.34
2019-01-25T03:26:44.209Z,979.40
2019-01-25T03:27:44.163Z,979.37
2019-01-25T03:28:44.136Z,979.37
2019-01-25T03:29:44.067Z,979.41
2019-01-25T03:30:44.029Z,979.39
2019-01-25T03:31:43.980Z,979.39
2019-01-25T03:32:43.941Z,979.40
2019-01-25T03:33:43.896Z,979.36
2019-01-25T03:34:43.850Z,979.38
2019-01-25T03:35:43.805Z,979.33
2019-01-25T03:36:43.757Z,979.41
2019-01-25T03:37:43.714Z,979.42
2019-01-25T03:38:43.710Z,979.42
2019-01-25T03:39:43.623Z,979.41
2019-01-25T03:40:43.581Z,979.44
2019-01-25T03:41:43.539Z,979.44
2019-01-25T03:42:43.491Z,979.41
2019-01-25T03:43:43.445Z,979.46
2019-01-25T03:44:43.401Z,979.46
2019-01-25T03:45:43.357Z,979.45
2019-01-25T03:46:43.318Z,979.46
2019-01-25T03:47:43.268Z,979.49
2019-01-25T03:48:43.221Z,979.45
2019-01-25T03:49:43.173Z,979.46
2019-01-25T03:50:43.137Z,979.49
2019-01-25T03:51:43.088Z,979.41
2019-01-25T04:07:01.301Z,979.42
2019-01-25T04:08:01.231Z,979.47
2019-01-25T04:09:01.173Z,979.46
2019-01-25T04:10:01.130Z,979.47
2019-01-25T04:11:03.945Z,979.47
2019-01-25T04:12:01.039Z,979.49
2019-01-25T04:13:00.982Z,979.52
2019-01-25T04:14:00.939Z,979.53
2019-01-25T04:15:00.891Z,979.58
2019-01-25T04:16:00.842Z,979.54
2019-01-25T04:17:00.804Z,979.52
2019-01-25T04:18:00.756Z,979.50
2019-01-25T04:19:00.709Z,979.57
2019-01-25T04:20:00.666Z,979.57
2019-01-25T04:21:09.315Z,979.52
2019-01-25T04:23:05.042Z,979.53
2019-01-25T04:24:04.966Z,979.57
2019-01-25T04:25:04.915Z,979.56
2019-01-25T04:26:04.872Z,979.57
2019-01-25T04:27:04.827Z,979.62
2019-01-25T04:28:04.787Z,979.64
2019-01-25T04:29:04.792Z,979.65
2019-01-25T04:30:04.694Z,979.61
2019-01-25T04:31:04.661Z,979.59
2019-01-25T04:32:04.614Z,979.62
2019-01-25T04:33:04.562Z,979.60
2019-01-25T04:34:04.513Z,979.59
2019-01-25T04:35:04.466Z,979.56
2019-01-25T04:36:04.417Z,979.65
2019-01-25T04:37:04.376Z,979.65
2019-01-25T04:38:04.334Z,979.64
2019-01-25T04:39:04.293Z,979.68
2019-01-25T04:40:04.245Z,979.68
2019-01-25T04:41:11.229Z,979.70
2019-01-25T04:42:04.155Z,979.70
2019-01-25T04:43:04.105Z,979.69
2019-01-25T04:44:04.057Z,979.76
2019-01-25T04:45:04.022Z,979.72
2019-01-25T04:46:03.973Z,979.76
2019-01-25T04:47:03.942Z,979.72
2019-01-25T04:48:03.881Z,979.75
2019-01-25T04:49:03.839Z,979.78
2019-01-25T04:50:03.790Z,979.73
2019-01-25T04:51:03.772Z,979.78
2019-01-25T04:52:03.716Z,979.75
2019-01-25T04:53:03.663Z,979.71
2019-01-25T04:54:03.616Z,979.71
2019-01-25T04:55:03.592Z,979.68
2019-01-25T04:56:03.521Z,979.66
2019-01-25T04:57:03.489Z,979.64
2019-01-25T04:58:03.437Z,979.65
2019-01-25T04:59:03.395Z,979.63
2019-01-25T05:00:03.351Z,979.63
2019-01-25T05:01:03.300Z,979.65
2019-01-25T05:02:03.256Z,979.60
2019-01-25T05:03:03.221Z,979.64
2019-01-25T05:04:03.172Z,979.62
2019-01-25T05:05:03.110Z,979.64
2019-01-25T05:06:03.063Z,979.62
2019-01-25T05:07:03.014Z,979.62
2019-01-25T05:08:02.969Z,979.62
2019-01-25T05:09:02.930Z,979.60
2019-01-25T05:10:02.882Z,979.61
2019-01-25T05:11:02.839Z,979.60
2019-01-25T05:12:02.796Z,979.63
2019-01-25T05:13:02.753Z,979.65
2019-01-25T05:14:02.711Z,979.64
2019-01-25T05:15:02.659Z,979.64
2019-01-25T05:16:02.614Z,979.63
2019-01-25T05:17:02.574Z,979.68
2019-01-25T05:18:02.532Z,979.68
2019-01-25T05:19:02.479Z,979.69
2019-01-25T05:20:02.441Z,979.71
2019-01-25T05:21:02.392Z,979.69
2019-01-25T05:22:02.376Z,979.70
2019-01-25T05:23:02.306Z,979.68
2019-01-25T05:24:02.263Z,979.67
2019-01-25T05:25:02.220Z,979.72
2019-01-25T05:26:02.170Z,979.72
2019-01-25T05:27:02.125Z,979.70
2019-01-25T05:28:02.078Z,979.73
2019-01-25T05:29:02.032Z,979.72
2019-01-25T05:30:01.994Z,979.69
2019-01-25T05:31:01.950Z,979.67
2019-01-25T05:32:01.904Z,979.70
2019-01-25T05:33:01.875Z,979.68
2019-01-25T05:34:01.815Z,979.68
2019-01-25T05:35:01.773Z,979.69
2019-01-25T05:36:01.730Z,979.73
2019-01-25T05:37:01.685Z,979.73
2019-01-25T05:38:01.640Z,979.71
2019-01-25T05:39:01.590Z,979.77
2019-01-25T05:40:01.544Z,979.80
2019-01-25T05:41:01.504Z,979.75
2019-01-25T05:42:01.461Z,979.77
2019-01-25T05:43:01.465Z,979.82
2019-01-25T05:44:01.382Z,979.86
2019-01-25T05:45:01.328Z,979.87
2019-01-25T05:46:01.299Z,979.85
2019-01-25T05:47:01.234Z,979.90
2019-01-25T05:48:01.186Z,979.92
2019-01-25T05:49:01.149Z,979.90
2019-01-25T05:50:01.103Z,979.88
2019-01-25T05:51:01.078Z,979.90
2019-01-25T05:52:01.021Z,979.93
2019-01-25T05:53:00.964Z,979.90
2019-01-25T05:54:00.927Z,979.91
2019-01-25T05:55:00.880Z,979.90
2019-01-25T05:56:00.837Z,979.88
2019-01-25T05:57:00.846Z,979.92
2019-01-25T05:58:00.757Z,979.89
2019-01-25T05:59:00.701Z,979.92
2019-01-25T06:00:00.658Z,979.92
2019-01-25T06:01:00.618Z,979.95
2019-01-25T06:02:00.569Z,979.95
2019-01-25T06:03:00.525Z,979.98
2019-01-25T06:04:00.542Z,979.98
2019-01-25T06:05:00.437Z,980.00
2019-01-25T06:06:00.389Z,980.02
2019-01-25T06:07:00.345Z,980.03
2019-01-25T06:08:00.306Z,980.06
2019-01-25T06:09:00.263Z,980.10
2019-01-25T06:10:00.258Z,980.11
2019-01-25T06:11:00.167Z,980.05
2019-01-25T06:12:00.147Z,980.06
2019-01-25T06:13:00.077Z,980.09
2019-01-25T06:14:00.043Z,980.08
2019-01-25T06:14:59.991Z,980.12
2019-01-25T06:15:59.951Z,980.10
2019-01-25T06:16:59.905Z,980.14
2019-01-25T06:17:59.860Z,980.15
2019-01-25T06:18:59.815Z,980.17
2019-01-25T06:19:59.766Z,980.18
2019-01-25T06:20:59.725Z,980.19
2019-01-25T06:21:59.677Z,980.22
2019-01-25T06:22:59.633Z,980.23
2019-01-25T06:23:59.589Z,980.21
2019-01-25T06:24:59.542Z,980.23
2019-01-25T06:25:59.502Z,980.26
2019-01-25T06:26:59.456Z,980.26
2019-01-25T06:27:59.419Z,980.23
2019-01-25T06:28:59.368Z,980.25
2019-01-25T06:29:59.324Z,980.26
2019-01-25T06:30:59.274Z,980.22
2019-01-25T06:31:59.227Z,980.23
2019-01-25T06:32:59.196Z,980.23
2019-01-25T06:33:59.146Z,980.25
2019-01-25T06:34:59.100Z,980.22
2019-01-25T06:35:59.057Z,980.27
2019-01-25T06:36:59.009Z,980.24
2019-01-25T06:37:58.963Z,980.28
2019-01-25T06:38:58.921Z,980.30
2019-01-25T06:39:58.877Z,980.28
2019-01-25T06:40:58.842Z,980.30
2019-01-25T06:41:58.789Z,980.26
2019-01-25T06:42:58.745Z,980.27
2019-01-25T06:43:58.750Z,980.27
2019-01-25T06:44:58.657Z,980.28
2019-01-25T06:45:58.610Z,980.25
2019-01-25T06:46:58.571Z,980.29
2019-01-25T06:47:58.522Z,980.28
2019-01-25T06:48:58.478Z,980.29
2019-01-25T06:49:58.435Z,980.28
2019-01-25T06:50:58.385Z,980.27
2019-01-25T06:51:58.342Z,980.29
2019-01-25T06:52:58.301Z,980.31
2019-01-25T06:53:58.253Z,980.26
2019-01-25T06:54:58.208Z,980.28
2019-01-25T06:55:58.161Z,980.28
2019-01-25T06:56:58.147Z,980.26
2019-01-25T06:57:58.076Z,980.26
2019-01-25T06:58:58.034Z,980.27
2019-01-25T06:59:57.990Z,980.30
2019-01-25T07:00:57.946Z,980.28
2019-01-25T07:01:57.899Z,980.31
2019-01-25T07:02:57.850Z,980.27
2019-01-25T07:03:57.805Z,980.25
2019-01-25T07:04:57.760Z,980.23
2019-01-25T07:05:57.731Z,980.23
2019-01-25T07:06:57.674Z,980.23
2019-01-25T07:07:57.651Z,980.24
2019-01-25T07:08:57.583Z,980.23
2019-01-25T07:09:57.539Z,980.24
2019-01-25T07:10:57.497Z,980.23
2019-01-25T07:11:57.460Z,980.25
2019-01-25T07:12:57.420Z,980.23
2019-01-25T07:13:57.366Z,980.21
2019-01-25T07:14:57.316Z,980.24
2019-01-25T07:15:57.270Z,980.27
2019-01-25T07:16:57.226Z,980.28
2019-01-25T07:17:57.183Z,980.28
2019-01-25T07:18:57.142Z,980.35
2019-01-25T07:19:57.097Z,980.36
2019-01-25T07:20:57.055Z,980.28
2019-01-25T07:21:57.021Z,980.29
2019-01-25T07:22:56.959Z,980.32
2019-01-25T07:23:56.912Z,980.28
2019-01-25T07:24:57.323Z,980.32
2019-01-25T07:25:56.831Z,980.28
2019-01-25T07:26:56.781Z,980.28
2019-01-25T07:27:56.740Z,980.29
2019-01-25T07:28:56.690Z,980.29
2019-01-25T07:29:56.652Z,980.34
2019-01-25T07:30:56.609Z,980.30
2019-01-25T07:31:56.563Z,980.28
2019-01-25T07:32:56.534Z,980.28
2019-01-25T07:33:56.473Z,980.29
2019-01-25T07:34:56.433Z,980.26
2019-01-25T07:35:56.379Z,980.29
2019-01-25T07:36:56.342Z,980.25
2019-01-25T07:37:56.297Z,980.31
2019-01-25T07:38:56.261Z,980.27
2019-01-25T07:39:56.221Z,980.26
2019-01-25T07:40:56.157Z,980.32
2019-01-25T07:41:59.437Z,980.29
2019-01-25T07:42:56.074Z,980.31
2019-01-25T07:43:56.032Z,980.32
2019-01-25T07:44:55.986Z,980.28
2019-01-25T07:45:55.956Z,980.30
2019-01-25T07:46:55.894Z,980.31
2019-01-25T07:47:55.848Z,980.38
2019-01-25T07:48:55.813Z,980.38
2019-01-25T07:49:55.789Z,980.37
2019-01-25T07:50:55.745Z,980.39
2019-01-25T07:51:55.695Z,980.40
2019-01-25T07:52:55.673Z,980.44
2019-01-25T07:53:55.585Z,980.40
2019-01-25T07:54:55.562Z,980.40
2019-01-25T07:55:55.526Z,980.42
2019-01-25T07:56:55.494Z,980.43
2019-01-25T07:57:55.411Z,980.45
2019-01-25T07:58:55.362Z,980.41
2019-01-25T07:59:55.335Z,980.44
2019-01-25T08:00:55.271Z,980.48
2019-01-25T08:01:55.260Z,980.50
2019-01-25T08:02:55.193Z,980.47
2019-01-25T08:03:55.157Z,980.47
2019-01-25T08:04:55.116Z,980.52
2019-01-25T08:05:55.065Z,980.51
2019-01-25T08:06:55.006Z,980.48
2019-01-25T08:07:54.976Z,980.48
2019-01-25T08:08:55.007Z,980.50
2019-01-25T08:09:56.529Z,980.55
2019-01-25T08:10:54.865Z,980.57
2019-01-25T08:11:54.791Z,980.59
2019-01-25T08:12:54.760Z,980.57
2019-01-25T08:13:54.722Z,980.58
2019-01-25T08:14:54.658Z,980.54
2019-01-25T08:15:54.652Z,980.55
2019-01-25T08:16:54.577Z,980.56
2019-01-25T08:17:54.549Z,980.55
2019-01-25T08:18:54.542Z,980.55
2019-01-25T08:19:54.470Z,980.61
2019-01-25T08:20:54.385Z,980.62
2019-01-25T08:21:54.343Z,980.59
2019-01-25T08:22:54.302Z,980.67
2019-01-25T08:23:54.260Z,980.67
2019-01-25T08:24:54.223Z,980.70
2019-01-25T08:25:54.169Z,980.67
2019-01-25T08:26:54.160Z,980.69
2019-01-25T08:27:54.109Z,980.72
2019-01-25T08:28:54.038Z,980.75
2019-01-25T08:29:53.990Z,980.75
2019-01-25T08:30:53.943Z,980.76
2019-01-25T08:31:53.898Z,980.79
2019-01-25T08:32:53.863Z,980.75
2019-01-25T08:33:53.819Z,980.74
2019-01-25T08:34:53.810Z,980.76
2019-01-25T08:35:53.740Z,980.74
2019-01-25T08:36:53.708Z,980.78
2019-01-25T08:37:53.703Z,980.79
2019-01-25T08:38:53.609Z,980.80
2019-01-25T08:39:53.564Z,980.80
2019-01-25T08:40:53.863Z,980.82
2019-01-25T08:41:53.473Z,980.84
2019-01-25T08:42:53.441Z,980.83
2019-01-25T08:43:53.398Z,980.82
2019-01-25T08:44:53.466Z,980.84
2019-01-25T08:45:53.301Z,980.81
2019-01-25T08:46:53.271Z,980.83
2019-01-25T08:47:53.219Z,980.84
2019-01-25T08:48:53.180Z,980.83
2019-01-25T08:49:57.815Z,980.84
2019-01-25T08:50:53.069Z,980.86
2019-01-25T08:51:53.061Z,980.81
2019-01-25T08:52:53.007Z,980.82
2019-01-25T08:53:53.085Z,980.82
2019-01-25T08:54:52.924Z,980.87
2019-01-25T08:55:52.845Z,980.86
2019-01-25T08:56:52.861Z,980.84
2019-01-25T08:57:52.758Z,980.87
2019-01-25T08:58:52.717Z,980.90
2019-01-25T08:59:52.671Z,980.89
2019-01-25T09:00:52.625Z,980.94
2019-01-25T09:01:52.581Z,980.98
2019-01-25T09:02:52.532Z,981.01
2019-01-25T09:03:52.489Z,981.01
2019-01-25T09:04:52.443Z,981.01
2019-01-25T09:05:52.405Z,981.01
2019-01-25T09:06:52.372Z,980.99
2019-01-25T09:07:52.353Z,980.96
2019-01-25T09:08:52.275Z,980.96
2019-01-25T09:09:52.230Z,980.95
2019-01-25T09:10:52.233Z,980.96
2019-01-25T09:11:52.140Z,980.93
2019-01-25T09:12:52.095Z,980.90
2019-01-25T09:13:52.049Z,980.89
2019-01-25T09:14:52.010Z,980.86
2019-01-25T09:15:51.965Z,980.89
2019-01-25T09:16:51.922Z,980.97
2019-01-25T09:17:51.874Z,980.97
2019-01-25T09:18:51.836Z,980.97
2019-01-25T09:19:51.792Z,980.96
2019-01-25T09:20:51.751Z,980.92
2019-01-25T09:21:51.701Z,980.96
2019-01-25T09:22:51.664Z,980.98
2019-01-25T09:23:51.610Z,980.95
2019-01-25T09:24:51.566Z,980.97
2019-01-25T09:25:51.523Z,981.00
2019-01-25T09:26:51.485Z,980.95
2019-01-25T09:27:51.437Z,980.95
2019-01-25T09:28:51.395Z,981.02
2019-01-25T09:29:51.350Z,980.99
2019-01-25T09:30:51.310Z,980.95
2019-01-25T09:31:51.262Z,980.95
2019-01-25T09:32:51.219Z,980.95
2019-01-25T09:33:51.177Z,980.97
2019-01-25T09:34:51.132Z,980.98
2019-01-25T09:35:51.080Z,981.01
2019-01-25T09:36:51.037Z,981.02
2019-01-25T09:37:50.998Z,980.96
2019-01-25T09:38:50.953Z,980.94
2019-01-25T09:39:50.918Z,980.98
2019-01-25T09:40:50.870Z,980.93
2019-01-25T09:41:50.826Z,980.98
2019-01-25T09:42:50.785Z,981.01
2019-01-25T09:43:50.730Z,980.97
2019-01-25T09:44:50.688Z,981.00
2019-01-25T09:45:50.649Z,981.03
2019-01-25T09:46:50.604Z,980.96
2019-01-25T09:47:50.574Z,980.99
2019-01-25T09:48:50.517Z,981.00
2019-01-25T09:49:50.482Z,981.03
2019-01-25T09:50:52.933Z,981.05
2019-01-25T09:51:50.391Z,981.04
2019-01-25T09:52:50.353Z,980.99
2019-01-25T09:53:50.299Z,981.02
2019-01-25T09:54:50.257Z,981.07
2019-01-25T09:55:50.210Z,981.03
2019-01-25T09:56:50.164Z,981.04
2019-01-25T09:57:50.133Z,981.07
2019-01-25T09:58:50.096Z,981.02
2019-01-25T09:59:50.039Z,981.08
2019-01-25T10:00:50.002Z,981.11
2019-01-25T10:01:49.952Z,981.11
2019-01-25T10:02:49.922Z,981.14
2019-01-25T10:03:49.861Z,981.15
2019-01-25T10:04:49.825Z,981.15
2019-01-25T10:05:49.783Z,981.16
2019-01-25T10:20:28.757Z,981.16
2019-01-25T10:21:28.688Z,981.12
2019-01-25T10:22:28.633Z,981.16
2019-01-25T10:23:28.593Z,981.08
2019-01-25T10:24:28.558Z,981.03
2019-01-25T10:25:28.499Z,981.10
2019-01-25T10:26:28.455Z,981.08
2019-01-25T10:27:28.408Z,981.15
2019-01-25T10:28:28.361Z,981.19
2019-01-25T10:29:28.314Z,981.20
2019-01-25T10:30:28.272Z,981.21
2019-01-25T10:31:28.221Z,981.22
2019-01-25T10:32:28.184Z,981.21
2019-01-25T10:33:28.138Z,981.16
2019-01-25T10:34:28.095Z,981.07
2019-01-25T10:35:36.810Z,981.12
2019-01-25T10:37:32.459Z,981.09
2019-01-25T10:38:32.421Z,981.05
2019-01-25T10:39:32.352Z,981.02
2019-01-25T10:40:32.319Z,980.92
2019-01-25T10:41:32.260Z,980.90
2019-01-25T10:42:32.215Z,980.88
2019-01-25T10:43:32.182Z,980.89
2019-01-25T10:44:32.128Z,980.91
2019-01-25T10:45:32.082Z,980.96
2019-01-25T10:46:32.056Z,980.93
2019-01-25T10:47:31.999Z,980.93
2019-01-25T10:48:31.959Z,980.93
2019-01-25T10:49:31.938Z,980.89
2019-01-25T10:50:31.867Z,980.93
2019-01-25T10:51:31.823Z,980.92
2019-01-25T10:52:31.786Z,981.00
2019-01-25T10:53:31.743Z,981.00
2019-01-25T10:54:31.689Z,980.99
2019-01-25T10:55:31.650Z,980.95
2019-01-25T10:56:31.607Z,981.02
2019-01-25T10:57:31.556Z,980.96
2019-01-25T10:58:31.518Z,981.00
2019-01-25T10:59:31.474Z,980.97
2019-01-25T11:00:40.600Z,981.02
2019-01-25T11:02:43.481Z,980.97
2019-01-25T11:03:35.803Z,981.06
2019-01-25T11:04:35.736Z,981.02
2019-01-25T11:05:35.809Z,980.99
2019-01-25T11:06:46.126Z,980.98
2019-01-25T11:08:50.482Z,980.95
2019-01-25T11:09:39.996Z,980.93
2019-01-25T11:12:52.286Z,980.87
2019-01-25T11:13:44.744Z,980.88
2019-01-25T11:14:44.676Z,980.80
2019-01-25T11:15:44.220Z,980.70
2019-01-25T11:16:44.148Z,980.61
2019-01-25T11:17:44.113Z,980.56
2019-01-25T11:18:44.065Z,980.58
2019-01-25T11:19:44.026Z,980.61
2019-01-25T11:20:43.981Z,980.57
2019-01-25T11:21:43.935Z,980.58
2019-01-25T11:22:43.889Z,980.48
2019-01-25T11:23:43.848Z,980.54
2019-01-25T11:24:43.804Z,980.55
2019-01-25T11:25:43.759Z,980.45
2019-01-25T11:26:43.717Z,980.47
2019-01-25T11:27:52.547Z,980.41
2019-01-25T11:29:48.414Z,980.39
2019-01-25T11:30:48.697Z,980.37
2019-01-25T11:31:47.963Z,980.39
2019-01-25T11:32:57.306Z,980.40
2019-01-25T16:04:13.327Z,979.14
2019-01-25T16:05:13.263Z,979.15
2019-01-25T16:06:13.201Z,979.21
2019-01-25T16:07:13.153Z,979.20
2019-01-25T16:08:13.113Z,979.21
2019-01-25T16:09:15.754Z,979.26
2019-01-25T16:10:13.023Z,979.29
2019-01-25T16:11:12.976Z,979.28
2019-01-25T16:12:12.928Z,979.27
2019-01-25T16:13:12.885Z,979.26
2019-01-25T16:14:17.922Z,979.24
2019-01-25T16:15:12.795Z,979.23
2019-01-25T16:16:12.750Z,979.23
2019-01-25T16:17:12.702Z,979.22
2019-01-25T16:18:12.657Z,979.23
2019-01-25T16:19:12.612Z,979.24
2019-01-25T16:20:12.570Z,979.16
2019-01-25T16:21:12.527Z,979.14
2019-01-25T16:22:12.488Z,979.16
2019-01-25T16:23:12.442Z,979.15
2019-01-25T16:24:12.395Z,979.15
2019-01-25T16:25:12.349Z,979.18
2019-01-25T16:26:12.304Z,979.14
2019-01-25T16:27:12.284Z,979.16
2019-01-25T16:28:12.224Z,979.13
2019-01-25T16:29:12.173Z,979.18
2019-01-25T16:30:12.133Z,979.25
2019-01-25T16:31:12.085Z,979.18
2019-01-25T16:32:12.058Z,979.21
2019-01-25T16:33:12.002Z,979.24
2019-01-25T16:34:11.968Z,979.24
2019-01-25T16:35:11.914Z,979.24
2019-01-25T16:36:11.871Z,979.19
2019-01-25T16:37:11.822Z,979.22
2019-01-25T16:38:11.780Z,979.23
2019-01-25T16:39:11.735Z,979.23
2019-01-25T16:40:11.689Z,979.22
2019-01-25T16:41:11.738Z,979.21
2019-01-25T16:42:11.607Z,979.17
2019-01-25T16:43:11.559Z,979.18
2019-01-25T16:44:11.518Z,979.17
2019-01-25T16:45:11.477Z,979.15
2019-01-25T16:46:11.431Z,979.09
2019-01-25T16:47:11.387Z,979.09
2019-01-25T16:48:11.346Z,979.05
2019-01-25T16:49:11.297Z,978.96
2019-01-25T16:50:11.253Z,978.97
2019-01-25T16:51:11.209Z,978.99
2019-01-25T16:52:11.165Z,978.94
2019-01-25T16:53:11.127Z,978.96
2019-01-25T16:54:11.081Z,978.93
2019-01-25T16:55:11.043Z,978.82
2019-01-25T16:56:10.996Z,978.89
2019-01-25T16:57:10.949Z,978.81
2019-01-25T16:58:12.584Z,978.77
2019-01-25T16:59:10.864Z,978.73
2019-01-25T17:00:10.820Z,978.81
2019-01-25T17:01:10.773Z,978.76
2019-01-25T17:02:10.729Z,978.71
2019-01-25T17:03:10.687Z,978.68
2019-01-25T17:04:10.641Z,978.68
2019-01-25T17:05:10.602Z,978.68
2019-01-25T17:06:10.556Z,978.62
2019-01-25T17:07:10.513Z,978.63
2019-01-25T17:08:10.471Z,978.62
2019-01-25T17:09:10.420Z,978.62
2019-01-25T17:10:10.408Z,978.63
2019-01-25T17:11:10.337Z,978.58
2019-01-25T17:12:10.289Z,978.56
2019-01-25T17:13:10.252Z,978.52
2019-01-25T17:14:10.215Z,978.56
2019-01-25T17:15:10.162Z,978.55
2019-01-25T17:16:10.114Z,978.47
2019-01-25T17:17:10.077Z,978.56
2019-01-25T17:18:10.030Z,978.59
2019-01-25T17:19:09.986Z,978.59
2019-01-25T17:20:17.089Z,978.47
2019-01-25T17:21:09.897Z,978.46
2019-01-25T17:22:09.853Z,978.40
2019-01-25T17:23:09.812Z,978.33
2019-01-25T17:24:09.763Z,978.35
2019-01-25T17:25:09.726Z,978.25
2019-01-25T17:26:09.707Z,978.21
2019-01-25T17:27:09.637Z,978.20
2019-01-25T17:28:09.595Z,978.13
2019-01-25T17:29:09.567Z,978.13
2019-01-25T17:30:09.508Z,978.16
2019-01-25T17:31:09.462Z,978.04
2019-01-25T17:32:09.420Z,978.12
2019-01-25T17:33:09.375Z,978.00
2019-01-25T17:34:09.329Z,978.04